Weather History for KMNH - October, 2012

Change the Weather History Date:

Thursday, October 4, 2012

  Actual Average (KAPA) Record (KAPA)
Temperature  
Mean Temperature 36 °F -  
Max Temperature 46 °F 67 °F 87 °F (1997)
Min Temperature 26 °F 39 °F 26 °F (2013)
Degree Days  
Heating Degree Days 29    
Moisture  
Dew Point 26 °F    
Average Humidity 70    
Maximum Humidity 86    
Minimum Humidity 49    
Precipitation  
Precipitation 0.00 in - - ()
Sea Level Pressure  
Sea Level Pressure 30.28 in    
Wind  
Wind Speed 8 mph (SSE)    
Max Wind Speed 15 mph    
Max Gust Speed 24 mph    
Visibility 10 miles    
Events      
Averages and records for this station are not official NWS values.
T = Trace of Precipitation, MM = Missing Value Source: NWS Daily Summary

Daily Weather History Graph

Daily Weather History Graph

Search for Another Location

Airport or City:

Trip Planner

Search our weather history database for the weather conditions in past years. The results will help you decide how hot, cold, wet, or windy it might be!

Date:

Astronomy

Oct. 04, 2012 Rise Set
Actual Time 6:57 AM MDT 6:35 PM MDT
Civil Twilight 6:31 AM MDT 7:02 PM MDT
Nautical Twilight 6:00 AM MDT 7:33 PM MDT
Astronomical Twilight 5:29 AM MDT 8:04 PM MDT
Moon 9:15 PM MDT (10/4) 11:15 AM MDT (10/4)
Length of Visible Light 12h 31m
Length of Day
11h 37m
Waning Gibbous, 81% of the Moon is Illuminated
Oct 4
Waning Gibbous
Oct 8
Last Quarter
Oct 15
New
Oct 21
First Quarter
Oct 29
Full

Hourly Weather History & Observations

Time (MDT) Temp. Windchill Dew Point Humidity Pressure Visibility Wind Dir Wind Speed Gust Speed Precip Events Conditions
12:11 AM 32.0 °F 22.5 °F 26.6 °F 80% 30.33 in 10.0 mi North 12.7 mph - N/A   Scattered Clouds
12:21 AM 30.2 °F 19.3 °F 26.6 °F 86% 30.33 in 10.0 mi North 15.0 mph 18.4 mph N/A   Clear
12:42 AM 30.2 °F 21.9 °F 26.6 °F 86% 30.35 in 10.0 mi NNW 9.2 mph - N/A   Clear
1:01 AM 30.2 °F 23.4 °F 26.6 °F 86% 30.35 in 10.0 mi NW 6.9 mph - N/A   Clear
1:21 AM 30.2 °F 21.3 °F 26.6 °F 86% 30.35 in 10.0 mi North 10.4 mph 16.1 mph N/A   Clear
1:42 AM 30.2 °F 21.3 °F 24.8 °F 80% 30.35 in 10.0 mi North 10.4 mph - N/A   Clear
2:02 AM 28.4 °F 23.3 °F 24.8 °F 86% 30.35 in 10.0 mi North 4.6 mph - N/A   Clear
2:21 AM 28.4 °F 22.2 °F 24.8 °F 86% 30.35 in 10.0 mi North 5.8 mph - N/A   Clear
2:42 AM 28.4 °F 23.3 °F 24.8 °F 86% 30.34 in 10.0 mi North 4.6 mph - N/A   Clear
3:03 AM 28.4 °F 23.3 °F 24.8 °F 86% 30.34 in 10.0 mi North 4.6 mph - N/A   Clear
3:21 AM 28.4 °F 23.3 °F 23.0 °F 80% 30.34 in 10.0 mi NNW 4.6 mph - N/A   Clear
3:42 AM 26.6 °F 22.6 °F 23.0 °F 86% 30.34 in 10.0 mi North 3.5 mph - N/A   Clear
4:11 AM 26.6 °F 21.2 °F 23.0 °F 86% 30.33 in 10.0 mi NNE 4.6 mph - N/A   Clear
4:21 AM 26.6 °F 22.6 °F 23.0 °F 86% 30.33 in 10.0 mi NNE 3.5 mph - N/A   Scattered Clouds
4:41 AM 26.6 °F - 23.0 °F 86% 30.33 in 10.0 mi Calm Calm - N/A   Scattered Clouds
5:11 AM 26.6 °F - 23.0 °F 86% 30.32 in 10.0 mi Calm Calm - N/A   Clear
5:21 AM 26.6 °F - 23.0 °F 86% 30.33 in 10.0 mi Calm Calm - N/A   Clear
5:41 AM 26.6 °F - 23.0 °F 86% 30.32 in 10.0 mi Calm Calm - N/A   Scattered Clouds
6:10 AM 26.6 °F - 23.0 °F 86% 30.33 in 10.0 mi Calm Calm - N/A   Scattered Clouds
6:27 AM 26.6 °F 22.6 °F 23.0 °F 86% 30.33 in 10.0 mi SSW 3.5 mph - N/A   Scattered Clouds
6:42 AM 26.6 °F - 23.0 °F 86% 30.33 in 10.0 mi Calm Calm - N/A   Mostly Cloudy
7:01 AM 26.6 °F - 23.0 °F 86% 30.33 in 10.0 mi Calm Calm - N/A   Overcast
7:22 AM 26.6 °F - 23.0 °F 86% 30.33 in 10.0 mi Calm Calm - N/A   Overcast
7:51 AM 30.2 °F - 24.8 °F 80% 30.33 in 10.0 mi Calm Calm - N/A   Mostly Cloudy
8:02 AM 30.2 °F - 24.8 °F 80% 30.33 in 10.0 mi Calm Calm - N/A   Scattered Clouds
8:24 AM 30.2 °F 26.7 °F 23.0 °F 75% 30.33 in 10.0 mi East 3.5 mph - N/A   Clear
8:41 AM 32.0 °F 27.5 °F 23.0 °F 69% 30.32 in 10.0 mi East 4.6 mph - N/A   Scattered Clouds
9:01 AM 32.0 °F 25.6 °F 23.0 °F 69% 30.33 in 10.0 mi East 6.9 mph - N/A   Mostly Cloudy
9:30 AM 32.0 °F 27.5 °F 23.0 °F 69% 30.32 in 10.0 mi ESE 4.6 mph - N/A   Scattered Clouds
9:51 AM 33.8 °F 27.0 °F 23.0 °F 65% 30.31 in 10.0 mi East 8.1 mph - N/A   Mostly Cloudy
10:11 AM 37.4 °F 31.4 °F 23.0 °F 56% 30.31 in 10.0 mi SE 8.1 mph - N/A   Mostly Cloudy
10:31 AM 37.4 °F 31.4 °F 24.8 °F 60% 30.31 in 10.0 mi SE 8.1 mph - N/A   Scattered Clouds
10:49 AM 41.0 °F 35.8 °F 26.6 °F 57% 30.30 in 10.0 mi SSE 8.1 mph 16.1 mph N/A   Scattered Clouds
11:09 AM 41.0 °F 34.7 °F 26.6 °F 57% 30.30 in 10.0 mi SSE 10.4 mph 18.4 mph N/A   Clear
11:22 AM 42.8 °F 36.6 °F 26.6 °F 53% 30.29 in 10.0 mi SSE 11.5 mph 16.1 mph N/A   Clear
11:41 AM 42.8 °F 35.8 °F 26.6 °F 53% 30.29 in 10.0 mi South 13.8 mph - N/A   Clear
12:30 PM 44.6 °F 38.8 °F 28.4 °F 53% 30.27 in 10.0 mi SSE 11.5 mph 17.3 mph N/A   Scattered Clouds
12:51 PM 44.6 °F 39.2 °F 28.4 °F 53% 30.26 in 10.0 mi SSE 10.4 mph - N/A   Scattered Clouds
1:01 PM 46.4 °F 40.4 °F 28.4 °F 50% 30.25 in 10.0 mi SSE 13.8 mph 18.4 mph N/A   Scattered Clouds
1:22 PM 44.6 °F 38.8 °F 28.4 °F 53% 30.24 in 10.0 mi SE 11.5 mph 24.2 mph N/A   Clear
1:49 PM 46.4 °F 41.1 °F 28.4 °F 50% 30.23 in 10.0 mi SSE 11.5 mph 20.7 mph N/A   Clear
2:11 PM 44.6 °F 39.7 °F 28.4 °F 53% 30.23 in 10.0 mi SE 9.2 mph - N/A   Scattered Clouds
2:23 PM 42.8 °F 37.0 °F 28.4 °F 57% 30.23 in 10.0 mi South 10.4 mph 19.6 mph N/A   Scattered Clouds
2:47 PM 42.8 °F 37.5 °F 28.4 °F 57% 30.23 in 10.0 mi South 9.2 mph 18.4 mph N/A   Mostly Cloudy
3:11 PM 44.6 °F 40.7 °F 28.4 °F 53% 30.23 in 10.0 mi South 6.9 mph - N/A   Scattered Clouds
3:22 PM 44.6 °F 38.8 °F 28.4 °F 53% 30.22 in 10.0 mi South 11.5 mph 19.6 mph N/A   Scattered Clouds
3:51 PM 44.6 °F 39.7 °F 28.4 °F 53% 30.23 in 10.0 mi SSE 9.2 mph 24.2 mph N/A   Scattered Clouds
4:11 PM 44.6 °F 40.2 °F 28.4 °F 53% 30.23 in 10.0 mi South 8.1 mph - N/A   Clear
4:22 PM 44.6 °F 38.8 °F 28.4 °F 53% 30.22 in 10.0 mi South 11.5 mph 17.3 mph N/A   Scattered Clouds
4:42 PM 42.8 °F 36.2 °F 26.6 °F 53% 30.23 in 10.0 mi South 12.7 mph - N/A   Scattered Clouds
5:02 PM 44.6 °F 38.1 °F 26.6 °F 49% 30.23 in 10.0 mi South 13.8 mph - N/A   Mostly Cloudy
5:21 PM 42.8 °F 37.0 °F 26.6 °F 53% 30.23 in 10.0 mi South 10.4 mph - N/A   Scattered Clouds
5:42 PM 42.8 °F 37.0 °F 26.6 °F 53% 30.22 in 10.0 mi South 10.4 mph - N/A   Scattered Clouds
6:02 PM 41.0 °F 35.8 °F 26.6 °F 57% 30.23 in 10.0 mi South 8.1 mph - N/A   Scattered Clouds
6:22 PM 39.2 °F 33.6 °F 26.6 °F 61% 30.23 in 10.0 mi South 8.1 mph - N/A   Clear
6:41 PM 37.4 °F 32.8 °F 26.6 °F 65% 30.24 in 10.0 mi South 5.8 mph - N/A   Clear
7:02 PM 33.8 °F 27.7 °F 26.6 °F 75% 30.24 in 10.0 mi South 6.9 mph - N/A   Clear
7:21 PM 33.8 °F 27.0 °F 26.6 °F 75% 30.24 in 10.0 mi South 8.1 mph - N/A   Clear
7:41 PM 35.6 °F 29.9 °F 26.6 °F 70% 30.24 in 10.0 mi South 6.9 mph - N/A   Clear
8:02 PM 33.8 °F 27.7 °F 26.6 °F 75% 30.24 in 10.0 mi South 6.9 mph - N/A   Clear
8:22 PM 33.8 °F 27.7 °F 26.6 °F 75% 30.24 in 10.0 mi South 6.9 mph - N/A   Clear
8:41 PM 32.0 °F 25.6 °F 24.8 °F 75% 30.24 in 10.0 mi South 6.9 mph - N/A   Clear
9:01 PM 33.8 °F 29.6 °F 24.8 °F 70% 30.23 in 10.0 mi SSE 4.6 mph - N/A   Clear
9:20 PM 32.0 °F 26.4 °F 24.8 °F 75% 30.23 in 10.0 mi South 5.8 mph - N/A   Clear
9:45 PM 32.0 °F 26.4 °F 24.8 °F 75% 30.23 in 10.0 mi South 5.8 mph - N/A   Clear
10:01 PM 32.0 °F 25.6 °F 24.8 °F 75% 30.23 in 10.0 mi South 6.9 mph - N/A   Clear
10:21 PM 32.0 °F 27.5 °F 26.6 °F 80% 30.23 in 10.0 mi South 4.6 mph - N/A   Clear
10:47 PM 32.0 °F 24.8 °F 26.6 °F 80% 30.21 in 10.0 mi South 8.1 mph - N/A   Clear
11:01 PM 33.8 °F 27.0 °F 26.6 °F 75% 30.21 in 10.0 mi South 8.1 mph - N/A   Clear
11:21 PM 33.8 °F 29.6 °F 26.6 °F 75% 30.23 in 10.0 mi SSW 4.6 mph - N/A   Clear
11:41 PM 35.6 °F 28.6 °F 26.6 °F 70% 30.23 in 10.0 mi SSW 9.2 mph - N/A   Scattered Clouds